createdAt,value
2019-03-24T00:00:26.695Z,11.20
2019-03-24T00:02:56.458Z,11.20
2019-03-24T00:05:26.119Z,11.10
2019-03-24T00:07:59.005Z,11.10
2019-03-24T00:10:39.366Z,11.10
2019-03-24T00:13:10.228Z,11.00
2019-03-24T00:15:39.792Z,11.00
2019-03-24T00:18:09.697Z,11.00
2019-03-24T00:20:39.161Z,11.00
2019-03-24T00:23:11.700Z,11.00
2019-03-24T00:25:42.323Z,11.00
2019-03-24T00:28:11.998Z,11.10
2019-03-24T00:30:41.498Z,11.10
2019-03-24T00:33:11.277Z,11.10
2019-03-24T00:35:41.252Z,11.10
2019-03-24T00:38:10.736Z,11.10
2019-03-24T00:40:40.207Z,11.10
2019-03-24T00:43:09.872Z,11.00
2019-03-24T00:45:39.439Z,11.00
2019-03-24T00:48:09.414Z,11.00
2019-03-24T00:50:39.107Z,11.00
2019-03-24T00:53:09.760Z,11.00
2019-03-24T00:55:39.390Z,11.00
2019-03-24T00:58:09.457Z,11.00
2019-03-24T01:00:44.419Z,11.00
2019-03-24T01:03:14.592Z,11.00
2019-03-24T01:05:44.311Z,11.00
2019-03-24T01:08:14.620Z,11.10
2019-03-24T01:10:44.229Z,11.10
2019-03-24T01:13:15.218Z,11.10
2019-03-24T01:15:48.048Z,11.00
2019-03-24T01:18:16.277Z,10.90
2019-03-24T01:20:46.008Z,10.80
2019-03-24T01:23:22.396Z,10.80
2019-03-24T01:25:52.278Z,10.90
2019-03-24T01:28:22.130Z,10.80
2019-03-24T01:30:51.760Z,10.80
2019-03-24T01:33:21.757Z,10.80
2019-03-24T01:35:51.360Z,10.70
2019-03-24T01:38:20.990Z,10.80
2019-03-24T01:40:52.412Z,10.70
2019-03-24T01:43:24.375Z,10.70
2019-03-24T01:45:58.626Z,10.70
2019-03-24T01:48:25.155Z,10.70
2019-03-24T01:50:54.870Z,10.60
2019-03-24T01:53:24.470Z,10.60
2019-03-24T01:55:54.382Z,10.50
2019-03-24T01:58:24.134Z,10.40
2019-03-24T02:00:53.799Z,10.30
2019-03-24T02:03:23.608Z,10.30
2019-03-24T02:05:53.532Z,10.20
2019-03-24T02:08:23.048Z,10.20
2019-03-24T02:10:52.664Z,10.20
2019-03-24T02:13:22.482Z,10.20
2019-03-24T02:15:52.118Z,10.20
2019-03-24T02:18:21.674Z,10.30
2019-03-24T02:20:51.212Z,10.30
2019-03-24T02:23:20.810Z,10.30
2019-03-24T02:25:50.377Z,10.30
2019-03-24T02:28:20.251Z,10.30
2019-03-24T02:30:49.809Z,10.30
2019-03-24T02:33:19.529Z,10.30
2019-03-24T02:35:49.135Z,10.40
2019-03-24T02:38:18.842Z,10.40
2019-03-24T02:40:48.396Z,10.30
2019-03-24T02:43:18.314Z,10.20
2019-03-24T02:45:47.810Z,10.20
2019-03-24T02:48:17.272Z,10.20
2019-03-24T02:50:47.417Z,10.20
2019-03-24T02:53:17.020Z,10.20
2019-03-24T02:55:46.740Z,10.20
2019-03-24T02:58:16.373Z,10.20
2019-03-24T03:00:45.945Z,10.20
2019-03-24T03:03:15.461Z,10.20
2019-03-24T03:05:44.945Z,10.10
2019-03-24T03:08:14.850Z,10.10
2019-03-24T03:10:44.560Z,10.10
2019-03-24T03:13:14.199Z,10.10
2019-03-24T03:15:43.711Z,10.10
2019-03-24T03:18:13.271Z,10.10
2019-03-24T03:20:42.714Z,10.10
2019-03-24T03:23:13.128Z,10.10
2019-03-24T03:25:42.690Z,10.10
2019-03-24T03:28:12.252Z,10.20
2019-03-24T03:30:41.732Z,10.20
2019-03-24T03:33:11.226Z,10.20
2019-03-24T03:35:40.762Z,10.20
2019-03-24T03:38:10.790Z,10.20
2019-03-24T03:40:40.498Z,10.10
2019-03-24T03:43:10.284Z,10.00
2019-03-24T03:45:40.200Z,10.00
2019-03-24T03:48:09.645Z,10.00
2019-03-24T03:50:39.340Z,10.00
2019-03-24T03:53:09.054Z,10.00
2019-03-24T03:55:38.719Z,10.00
2019-03-24T03:58:08.366Z,10.00
2019-03-24T04:00:38.276Z,10.00
2019-03-24T04:03:07.969Z,10.10
2019-03-24T04:05:37.422Z,10.10
2019-03-24T04:08:07.097Z,10.00
2019-03-24T04:10:37.369Z,10.00
2019-03-24T04:13:06.957Z,10.00
2019-03-24T04:15:36.569Z,10.00
2019-03-24T04:18:06.130Z,10.00
2019-03-24T04:20:35.827Z,10.00
2019-03-24T04:23:05.433Z,10.00
2019-03-24T04:25:35.082Z,9.90
2019-03-24T04:28:04.901Z,9.90
2019-03-24T04:30:34.377Z,9.80
2019-03-24T04:33:03.881Z,9.80
2019-03-24T04:35:33.490Z,9.80
2019-03-24T04:38:02.988Z,9.80
2019-03-24T04:40:32.639Z,9.80
2019-03-24T04:43:04.568Z,9.80
2019-03-24T04:45:34.532Z,9.60
2019-03-24T04:48:04.145Z,9.60
2019-03-24T04:50:33.710Z,9.50
2019-03-24T04:53:03.221Z,9.50
2019-03-24T04:55:32.921Z,9.50
2019-03-24T04:58:02.501Z,9.40
2019-03-24T05:00:36.856Z,9.40
2019-03-24T05:03:06.570Z,9.40
2019-03-24T05:05:36.405Z,9.40
2019-03-24T05:08:06.876Z,9.30
2019-03-24T05:10:36.543Z,9.30
2019-03-24T05:13:06.018Z,9.30
2019-03-24T05:15:35.735Z,9.30
2019-03-24T05:18:05.793Z,9.30
2019-03-24T05:20:35.602Z,9.40
2019-03-24T05:23:05.184Z,9.40
2019-03-24T05:25:34.658Z,9.30
2019-03-24T05:28:04.327Z,9.30
2019-03-24T05:30:34.253Z,9.30
2019-03-24T05:33:03.836Z,9.40
2019-03-24T05:35:33.467Z,9.40
2019-03-24T05:38:03.246Z,9.40
2019-03-24T05:40:32.791Z,9.30
2019-03-24T05:43:02.521Z,9.30
2019-03-24T05:45:32.104Z,9.30
2019-03-24T05:48:01.613Z,9.30
2019-03-24T05:50:31.131Z,9.30
2019-03-24T05:53:00.721Z,9.30
2019-03-24T05:55:30.329Z,9.30
2019-03-24T05:57:59.829Z,9.30
2019-03-24T06:00:29.236Z,9.30
2019-03-24T06:02:58.969Z,9.20
2019-03-24T06:05:28.491Z,9.20
2019-03-24T06:07:58.003Z,9.10
2019-03-24T06:10:29.420Z,9.20
2019-03-24T06:12:59.021Z,9.20
2019-03-24T06:15:28.543Z,9.30
2019-03-24T06:17:57.988Z,9.30
2019-03-24T06:20:27.730Z,9.30
2019-03-24T06:22:57.739Z,9.30
2019-03-24T06:25:27.286Z,9.40
2019-03-24T06:27:56.851Z,9.50
2019-03-24T06:30:26.509Z,9.60
2019-03-24T06:32:56.079Z,9.70
2019-03-24T06:35:25.519Z,9.70
2019-03-24T06:37:55.324Z,9.80
2019-03-24T06:40:24.958Z,9.80
2019-03-24T06:42:54.811Z,9.90
2019-03-24T06:45:28.771Z,9.90
2019-03-24T06:47:58.079Z,9.90
2019-03-24T06:50:30.128Z,10.00
2019-03-24T06:52:59.618Z,10.10
2019-03-24T06:55:29.402Z,10.10
2019-03-24T06:57:59.046Z,10.20
2019-03-24T07:00:28.845Z,10.20
2019-03-24T07:02:58.458Z,10.20
2019-03-24T07:05:28.057Z,10.10
2019-03-24T07:07:57.512Z,10.10
2019-03-24T07:10:27.441Z,10.00
2019-03-24T07:12:56.978Z,10.10
2019-03-24T07:15:26.793Z,10.20
2019-03-24T07:17:56.384Z,10.20
2019-03-24T07:20:26.209Z,10.30
2019-03-24T07:22:56.118Z,10.20
2019-03-24T07:25:25.734Z,10.30
2019-03-24T07:27:55.947Z,10.30
2019-03-24T07:30:26.332Z,10.40
2019-03-24T07:32:56.828Z,10.50
2019-03-24T07:35:26.626Z,10.50
2019-03-24T07:37:56.182Z,10.60
2019-03-24T07:40:26.036Z,10.60
2019-03-24T07:42:55.594Z,10.70
2019-03-24T07:45:25.114Z,10.90
2019-03-24T07:47:54.645Z,11.00
2019-03-24T07:50:24.170Z,11.10
2019-03-24T07:52:53.819Z,11.20
2019-03-24T07:55:23.680Z,11.20
2019-03-24T07:57:53.591Z,11.20
2019-03-24T08:00:32.902Z,11.30
2019-03-24T08:03:02.623Z,11.30
2019-03-24T08:05:32.473Z,11.40
2019-03-24T08:08:02.281Z,11.50
2019-03-24T08:10:32.198Z,11.50
2019-03-24T08:13:01.732Z,11.50
2019-03-24T08:15:31.486Z,11.50
2019-03-24T08:18:29.534Z,11.50
2019-03-24T08:20:51.571Z,11.40
2019-03-24T08:23:21.178Z,11.40
2019-03-24T08:25:50.882Z,11.50
2019-03-24T08:28:23.129Z,11.50
2019-03-24T08:30:52.608Z,11.50
2019-03-24T08:33:22.297Z,11.50
2019-03-24T08:35:52.150Z,11.50
2019-03-24T08:38:24.622Z,11.50
2019-03-24T08:40:54.352Z,11.60
2019-03-24T08:43:24.099Z,11.60
2019-03-24T08:45:54.560Z,11.60
2019-03-24T08:48:24.235Z,11.60
2019-03-24T08:50:53.822Z,11.60
2019-03-24T08:53:24.434Z,11.70
2019-03-24T08:55:54.661Z,11.80
2019-03-24T08:58:27.616Z,11.80
2019-03-24T09:00:57.677Z,11.80
2019-03-24T09:03:27.834Z,11.70
2019-03-24T09:05:57.466Z,11.80
2019-03-24T09:08:27.194Z,11.80
2019-03-24T09:10:57.161Z,11.80
2019-03-24T09:13:27.264Z,11.80
2019-03-24T09:15:57.371Z,11.80
2019-03-24T09:18:26.980Z,11.80
2019-03-24T09:20:57.022Z,11.90
2019-03-24T09:23:26.833Z,11.90
2019-03-24T09:25:56.901Z,12.00
2019-03-24T09:28:26.638Z,12.00
2019-03-24T09:30:56.229Z,12.10
2019-03-24T09:33:25.965Z,12.10
2019-03-24T09:35:55.518Z,12.10
2019-03-24T09:38:25.132Z,12.20
2019-03-24T09:40:54.943Z,12.20
2019-03-24T09:43:24.492Z,12.20
2019-03-24T09:45:56.233Z,12.20
2019-03-24T09:48:26.286Z,12.20
2019-03-24T09:50:55.899Z,12.10
2019-03-24T09:53:25.437Z,12.10
2019-03-24T09:55:55.033Z,12.10
2019-03-24T09:58:24.518Z,12.10
2019-03-24T10:00:53.953Z,11.90
2019-03-24T10:03:23.653Z,11.90
2019-03-24T10:05:53.497Z,12.00
2019-03-24T10:08:24.846Z,12.00
2019-03-24T10:10:54.699Z,12.00
2019-03-24T10:13:24.267Z,12.00
2019-03-24T10:15:53.854Z,12.00
2019-03-24T10:18:23.385Z,12.00
2019-03-24T10:20:52.991Z,11.90
2019-03-24T10:23:22.502Z,11.70
2019-03-24T10:25:52.087Z,11.70
2019-03-24T10:28:21.775Z,11.60
2019-03-24T10:30:51.463Z,11.70
2019-03-24T10:33:21.106Z,11.80
2019-03-24T10:35:50.676Z,11.80
2019-03-24T10:38:20.304Z,11.80
2019-03-24T10:40:50.013Z,11.80
2019-03-24T10:43:19.615Z,11.90
2019-03-24T10:45:49.203Z,12.00
2019-03-24T10:48:18.811Z,12.10
2019-03-24T10:50:48.486Z,12.20
2019-03-24T10:53:18.566Z,12.20
2019-03-24T10:55:48.109Z,12.20
2019-03-24T10:58:18.234Z,12.10
2019-03-24T11:00:47.978Z,12.10
2019-03-24T11:03:17.897Z,12.00
2019-03-24T11:05:47.366Z,12.10
2019-03-24T11:08:18.064Z,12.10
2019-03-24T11:10:47.993Z,12.20
2019-03-24T11:13:17.612Z,12.10
2019-03-24T11:15:47.341Z,12.10
2019-03-24T11:18:17.421Z,12.10
2019-03-24T11:20:47.146Z,12.10
2019-03-24T11:23:17.788Z,12.20
2019-03-24T11:25:47.281Z,12.30
2019-03-24T11:28:19.160Z,12.50
2019-03-24T11:30:48.377Z,12.70
2019-03-24T11:33:18.175Z,12.90
2019-03-24T11:35:47.665Z,13.00
2019-03-24T11:38:17.133Z,13.10
2019-03-24T11:40:46.842Z,13.10
2019-03-24T11:43:16.628Z,13.10
2019-03-24T11:45:46.207Z,13.10
2019-03-24T11:48:16.027Z,13.20
2019-03-24T11:50:45.660Z,13.30
2019-03-24T11:53:15.347Z,13.20
2019-03-24T11:55:45.263Z,13.20
2019-03-24T11:58:16.187Z,13.30
2019-03-24T12:00:45.627Z,13.30
2019-03-24T12:03:15.263Z,13.30
2019-03-24T12:05:45.173Z,13.30
2019-03-24T12:08:16.303Z,13.30
2019-03-24T12:10:46.094Z,13.40
2019-03-24T12:13:16.123Z,13.30
2019-03-24T12:15:46.471Z,13.40
2019-03-24T12:18:16.265Z,13.50
2019-03-24T12:20:45.877Z,13.60
2019-03-24T12:23:15.410Z,13.70
2019-03-24T12:25:45.072Z,13.80
2019-03-24T12:28:14.839Z,13.60
2019-03-24T12:30:44.475Z,13.50
2019-03-24T12:33:14.530Z,13.40
2019-03-24T12:35:44.252Z,13.50
2019-03-24T12:38:13.887Z,13.60
2019-03-24T12:40:43.866Z,13.80
2019-03-24T12:43:19.497Z,14.00
2019-03-24T12:45:45.742Z,14.10
2019-03-24T12:48:15.564Z,14.00
2019-03-24T12:50:45.198Z,13.80
2019-03-24T12:53:15.399Z,13.70
2019-03-24T12:55:45.981Z,13.70
2019-03-24T12:58:16.155Z,13.70
2019-03-24T13:00:45.798Z,13.60
2019-03-24T13:03:15.511Z,13.60
2019-03-24T13:05:45.272Z,13.80
2019-03-24T13:08:18.852Z,13.90
2019-03-24T13:10:48.826Z,13.90
2019-03-24T13:13:19.064Z,13.80
2019-03-24T13:15:49.002Z,13.80
2019-03-24T13:18:18.683Z,13.90
2019-03-24T13:20:48.598Z,13.90
2019-03-24T13:23:18.990Z,13.80
2019-03-24T13:25:50.545Z,13.80
2019-03-24T13:28:20.549Z,13.80
2019-03-24T13:30:50.405Z,13.70
2019-03-24T13:33:55.609Z,13.70
2019-03-24T13:36:25.931Z,13.60
2019-03-24T13:38:56.306Z,13.70
2019-03-24T13:41:25.934Z,13.80
2019-03-24T13:43:55.547Z,13.90
2019-03-24T13:46:27.744Z,13.90
2019-03-24T13:48:57.395Z,13.80
2019-03-24T13:51:27.216Z,13.70
2019-03-24T13:53:56.717Z,13.60
2019-03-24T13:56:26.520Z,13.60
2019-03-24T13:58:56.395Z,13.50
2019-03-24T14:01:26.309Z,13.40
2019-03-24T14:03:55.995Z,13.40
2019-03-24T14:06:25.596Z,13.30
2019-03-24T14:08:55.235Z,13.30
2019-03-24T14:11:25.051Z,13.30
2019-03-24T14:13:55.619Z,13.30
2019-03-24T14:16:26.726Z,13.30
2019-03-24T14:18:56.440Z,13.20
2019-03-24T14:21:54.942Z,13.10
2019-03-24T14:24:24.774Z,13.10
2019-03-24T14:26:54.801Z,13.20
2019-03-24T14:29:27.106Z,13.10
2019-03-24T14:31:57.039Z,13.00
2019-03-24T14:34:27.121Z,13.00
2019-03-24T14:36:56.750Z,13.00
2019-03-24T14:39:26.310Z,12.90
2019-03-24T14:41:56.889Z,12.90
2019-03-24T14:44:26.643Z,12.90
2019-03-24T14:46:56.362Z,12.90
2019-03-24T14:49:26.371Z,12.90
2019-03-24T14:51:56.686Z,12.90
2019-03-24T14:54:26.511Z,12.80
2019-03-24T14:56:56.310Z,12.80
2019-03-24T14:59:26.438Z,12.70
2019-03-24T15:01:56.672Z,12.70
2019-03-24T15:04:26.494Z,12.60
2019-03-24T15:06:57.595Z,12.60
2019-03-24T15:09:27.302Z,12.60
2019-03-24T15:11:57.482Z,12.60
2019-03-24T15:14:28.740Z,12.50
2019-03-24T15:16:58.464Z,12.50
2019-03-24T15:19:28.319Z,12.40
2019-03-24T15:21:58.029Z,12.40
2019-03-24T15:24:28.054Z,12.40
2019-03-24T15:26:57.712Z,12.30
2019-03-24T15:29:27.504Z,12.30
2019-03-24T15:31:57.234Z,12.40
2019-03-24T15:34:45.786Z,12.30
2019-03-24T15:37:15.505Z,12.20
2019-03-24T15:39:48.427Z,12.20
2019-03-24T15:42:20.581Z,12.10
2019-03-24T15:44:50.304Z,12.10
2019-03-24T15:47:19.922Z,12.10
2019-03-24T15:49:50.202Z,12.10
2019-03-24T15:52:20.677Z,12.10
2019-03-24T15:54:50.458Z,12.10
2019-03-24T15:57:20.217Z,12.00
2019-03-24T15:59:50.485Z,12.10
2019-03-24T16:02:20.204Z,12.10
2019-03-24T16:04:49.852Z,12.20
2019-03-24T16:07:20.023Z,12.10
2019-03-24T16:09:49.829Z,12.20
2019-03-24T16:12:22.776Z,12.20
2019-03-24T16:14:54.039Z,12.10
2019-03-24T16:17:23.595Z,12.10
2019-03-24T16:19:53.551Z,12.20
2019-03-24T16:22:25.058Z,12.20
2019-03-24T16:24:55.146Z,12.20
2019-03-24T16:27:24.666Z,12.20
2019-03-24T16:29:54.471Z,12.20
2019-03-24T16:32:24.476Z,12.10
2019-03-24T16:34:56.018Z,12.10
2019-03-24T16:37:25.687Z,12.20
2019-03-24T16:39:55.346Z,12.20
2019-03-24T16:42:24.869Z,12.20
2019-03-24T16:44:54.835Z,12.20
2019-03-24T16:47:24.503Z,12.10
2019-03-24T16:49:54.068Z,12.00
2019-03-24T16:52:23.701Z,11.90
2019-03-24T16:54:53.523Z,11.80
2019-03-24T16:57:23.202Z,11.70
2019-03-24T16:59:53.948Z,11.60
2019-03-24T17:02:23.716Z,11.50
2019-03-24T17:04:53.482Z,11.50
2019-03-24T17:07:23.053Z,11.40
2019-03-24T17:09:52.803Z,11.40
2019-03-24T17:12:22.268Z,11.40
2019-03-24T17:14:51.921Z,11.40
2019-03-24T17:17:21.756Z,11.50
2019-03-24T17:19:52.042Z,11.50
2019-03-24T17:22:21.920Z,11.40
2019-03-24T17:24:51.855Z,11.40
2019-03-24T17:27:21.705Z,11.50
2019-03-24T17:29:51.329Z,11.40
2019-03-24T17:32:21.092Z,11.40
2019-03-24T17:34:50.767Z,11.40
2019-03-24T17:37:24.752Z,11.30
2019-03-24T17:39:56.972Z,11.30
2019-03-24T17:42:28.194Z,11.30
2019-03-24T17:44:58.171Z,11.20
2019-03-24T17:47:31.032Z,11.20
2019-03-24T17:50:00.819Z,11.20
2019-03-24T17:52:31.751Z,11.10
2019-03-24T17:55:01.589Z,11.20
2019-03-24T17:57:31.601Z,11.10
2019-03-24T18:00:01.111Z,11.10
2019-03-24T18:02:35.536Z,11.20
2019-03-24T18:05:05.925Z,11.20
2019-03-24T18:07:35.776Z,11.30
2019-03-24T18:10:06.182Z,11.30
2019-03-24T18:12:38.025Z,11.20
2019-03-24T18:15:16.991Z,11.20
2019-03-24T18:17:46.913Z,11.10
2019-03-24T18:20:28.126Z,11.10
2019-03-24T18:22:58.289Z,11.10
2019-03-24T18:25:28.101Z,11.10
2019-03-24T18:27:59.980Z,11.10
2019-03-24T18:30:29.647Z,11.00
2019-03-24T18:32:59.341Z,11.00
2019-03-24T18:35:29.202Z,11.00
2019-03-24T18:37:59.577Z,11.00
2019-03-24T18:40:29.755Z,11.00
2019-03-24T18:42:59.486Z,11.00
2019-03-24T18:45:29.728Z,11.00
2019-03-24T18:47:59.396Z,11.00
2019-03-24T18:50:28.952Z,11.00
2019-03-24T18:52:58.950Z,11.00
2019-03-24T18:55:28.670Z,11.00
2019-03-24T18:57:58.794Z,11.10
2019-03-24T19:00:28.553Z,11.10
2019-03-24T19:02:58.355Z,11.10
2019-03-24T19:05:28.712Z,11.20
2019-03-24T19:07:58.508Z,11.20
2019-03-24T19:10:28.303Z,11.20
2019-03-24T19:12:57.993Z,11.20
2019-03-24T19:15:27.743Z,11.20
2019-03-24T19:17:57.304Z,11.20
2019-03-24T19:20:26.906Z,11.20
2019-03-24T19:22:57.024Z,11.20
2019-03-24T19:25:27.519Z,11.20
2019-03-24T19:27:57.411Z,11.20
2019-03-24T19:30:37.659Z,11.10
2019-03-24T19:33:07.698Z,11.00
2019-03-24T19:35:37.425Z,11.00
2019-03-24T19:38:07.220Z,10.90
2019-03-24T19:40:37.010Z,10.90
2019-03-24T19:43:06.947Z,10.80
2019-03-24T19:45:36.477Z,10.80
2019-03-24T19:48:07.836Z,10.80
2019-03-24T19:50:37.664Z,10.80
2019-03-24T19:53:07.507Z,10.80
2019-03-24T19:55:37.058Z,10.70
2019-03-24T19:58:06.794Z,10.70
2019-03-24T20:00:36.500Z,10.70
2019-03-24T20:03:06.586Z,10.80
2019-03-24T20:05:36.322Z,10.70
2019-03-24T20:08:06.565Z,10.70
2019-03-24T20:10:36.314Z,10.70
2019-03-24T20:13:06.372Z,10.70
2019-03-24T20:15:36.363Z,10.60
2019-03-24T20:18:06.318Z,10.60
2019-03-24T20:20:35.916Z,10.60
2019-03-24T20:23:06.090Z,10.60
2019-03-24T20:25:35.839Z,10.60
2019-03-24T20:28:05.670Z,10.60
2019-03-24T20:30:35.373Z,10.60
2019-03-24T20:33:05.192Z,10.60
2019-03-24T20:35:35.724Z,10.60
2019-03-24T20:38:05.818Z,10.60
2019-03-24T20:40:35.661Z,10.60
2019-03-24T20:43:05.488Z,10.60
2019-03-24T20:45:35.226Z,10.60
2019-03-24T20:48:05.113Z,10.50
2019-03-24T20:50:34.824Z,10.50
2019-03-24T20:53:17.344Z,10.30
2019-03-24T20:55:35.692Z,10.30
2019-03-24T20:58:08.228Z,10.20
2019-03-24T21:00:39.781Z,10.10
2019-03-24T21:03:10.110Z,10.10
2019-03-24T21:05:39.751Z,10.10
2019-03-24T21:08:09.629Z,10.10
2019-03-24T21:10:39.497Z,10.10
2019-03-24T21:13:09.387Z,10.20
2019-03-24T21:15:39.121Z,10.20
2019-03-24T21:18:08.897Z,10.20
2019-03-24T21:20:38.584Z,10.20
2019-03-24T21:23:09.251Z,10.20
2019-03-24T21:25:40.457Z,10.20
2019-03-24T21:28:10.353Z,10.20
2019-03-24T21:30:41.469Z,10.10
2019-03-24T21:33:11.283Z,10.10
2019-03-24T21:35:40.891Z,10.10
2019-03-24T21:38:11.051Z,10.00
2019-03-24T21:40:40.794Z,10.00
2019-03-24T21:43:10.731Z,10.00
2019-03-24T21:45:40.330Z,10.00
2019-03-24T21:48:10.030Z,9.90
2019-03-24T21:50:39.889Z,9.90
2019-03-24T21:53:09.505Z,9.90
2019-03-24T21:55:39.468Z,9.90
2019-03-24T21:58:09.294Z,10.00
2019-03-24T22:00:39.037Z,10.00
2019-03-24T22:03:08.831Z,10.00
2019-03-24T22:05:38.937Z,10.00
2019-03-24T22:08:08.524Z,10.10
2019-03-24T22:10:38.213Z,10.10
2019-03-24T22:13:07.964Z,10.20
2019-03-24T22:15:38.504Z,10.20
2019-03-24T22:18:08.669Z,10.20
2019-03-24T22:20:48.556Z,10.30
2019-03-24T22:23:09.835Z,10.30
2019-03-24T22:25:40.829Z,10.30
2019-03-24T22:28:11.917Z,10.30
2019-03-24T22:30:43.995Z,10.30
2019-03-24T22:33:13.529Z,10.20
2019-03-24T22:35:43.059Z,10.10
2019-03-24T22:38:12.689Z,10.10
2019-03-24T22:40:42.372Z,10.10
2019-03-24T22:43:12.269Z,10.10
2019-03-24T22:45:41.950Z,10.10
2019-03-24T22:48:11.529Z,10.20
2019-03-24T22:50:41.378Z,10.20
2019-03-24T22:53:10.973Z,10.10
2019-03-24T22:55:40.558Z,10.10
2019-03-24T22:58:10.270Z,10.10
2019-03-24T23:00:50.298Z,10.10
2019-03-24T23:03:24.769Z,10.10
2019-03-24T23:05:53.897Z,10.10
2019-03-24T23:08:23.565Z,10.10
2019-03-24T23:10:53.168Z,10.10
2019-03-24T23:13:22.868Z,10.10
2019-03-24T23:15:52.747Z,10.10
2019-03-24T23:18:23.050Z,10.00
2019-03-24T23:20:52.832Z,9.90
2019-03-24T23:23:22.776Z,9.90
2019-03-24T23:25:52.677Z,10.00
2019-03-24T23:28:22.629Z,9.80
2019-03-24T23:30:52.536Z,9.70
2019-03-24T23:33:22.556Z,9.70
2019-03-24T23:35:52.266Z,9.70
2019-03-24T23:38:25.220Z,9.70
2019-03-24T23:40:54.906Z,9.70
2019-03-24T23:43:24.509Z,9.80
2019-03-24T23:45:54.377Z,9.80
2019-03-24T23:48:24.776Z,9.80
2019-03-24T23:50:54.414Z,9.80
2019-03-24T23:53:25.816Z,9.80
2019-03-24T23:55:55.613Z,9.80
2019-03-24T23:58:31.875Z,9.80
